Time;durP1;ratioP1;P1;durP2;ratioP2;P2;SDS_P1;SDS_P2;PMS_P1;PMS_P2;Temp;Humidity;BMP_temperature;BMP_pressure;BME280_temperature;BME280_humidity;BME280_pressure;Samples;Min_cycle;Max_cycle;Signal;HPM_P1;HPM_P2
2022/04/19 00:02:01;;;;;;;10.25;5.78;;;8.60;91.50;;;;;;5099019;27;20118;-81
2022/04/19 00:04:27;;;;;;;7.25;6.40;;;8.60;91.50;;;;;;5082619;27;20055;-81
2022/04/19 00:06:53;;;;;;;7.05;6.05;;;8.50;91.70;;;;;;5102936;28;20069;-81
2022/04/19 00:09:18;;;;;;;6.35;5.57;;;8.50;91.30;;;;;;5113303;28;20394;-81
2022/04/19 00:11:44;;;;;;;7.50;5.63;;;8.50;91.50;;;;;;5062368;28;20440;-80
2022/04/19 00:14:10;;;;;;;6.70;6.00;;;8.40;91.00;;;;;;5062096;28;20051;-81
2022/04/19 00:16:36;;;;;;;6.72;6.03;;;8.40;91.00;;;;;;5095812;28;20043;-80
2022/04/19 00:19:02;;;;;;;6.80;6.07;;;8.30;90.90;;;;;;5113219;28;20441;-81
2022/04/19 00:21:28;;;;;;;6.85;5.63;;;8.30;91.10;;;;;;5062184;28;20111;-80
2022/04/19 00:23:53;;;;;;;8.50;5.85;;;8.30;91.40;;;;;;5077848;28;20047;-80
2022/04/19 00:26:19;;;;;;;7.90;6.05;;;8.20;91.30;;;;;;5078365;28;20044;-80
2022/04/19 00:28:45;;;;;;;6.97;5.93;;;8.20;91.50;;;;;;5078704;28;20035;-80
2022/04/19 00:31:11;;;;;;;7.60;5.95;;;8.10;91.60;;;;;;5078112;28;20062;-81
2022/04/19 00:33:42;;;;;;;7.72;5.90;;;8.10;91.70;;;;;;5062199;28;20083;-80
2022/04/19 00:36:08;;;;;;;9.27;6.03;;;8.10;91.80;;;;;;5079003;28;20131;-80
2022/04/19 00:38:34;;;;;;;7.15;5.93;;;8.10;92.00;;;;;;5078467;28;20161;-80
2022/04/19 00:40:59;;;;;;;7.63;6.05;;;8.00;92.30;;;;;;5095211;28;20083;-80
2022/04/19 00:43:26;;;;;;;8.50;5.75;;;8.00;92.60;;;;;;5077734;28;20143;-80
2022/04/19 00:45:52;;;;;;;7.50;6.28;;;8.00;92.70;;;;;;5095377;28;20047;-80
2022/04/19 00:48:21;;;;;;;9.10;6.30;;;8.00;93.10;;;;;;5077904;28;20511;-81
2022/04/19 00:50:50;;;;;;;9.10;6.10;;;8.10;93.30;;;;;;5078745;28;20047;-80
2022/04/19 00:53:17;;;;;;;6.43;5.78;;;7.90;93.40;;;;;;5078859;28;20036;-81
2022/04/19 00:55:42;;;;;;;6.40;5.65;;;7.90;93.60;;;;;;5062247;28;20051;-80
2022/04/19 00:58:08;;;;;;;6.30;5.57;;;7.90;93.80;;;;;;5078112;28;20104;-81
2022/04/19 01:00:34;;;;;;;8.85;6.25;;;7.90;93.90;;;;;;5078566;28;20039;-80
2022/04/19 01:02:59;;;;;;;7.45;6.25;;;7.90;93.80;;;;;;5078131;28;20044;-80
2022/04/19 01:05:25;;;;;;;7.75;5.97;;;7.80;93.80;;;;;;5061222;28;20043;-80
2022/04/19 01:07:51;;;;;;;7.47;6.10;;;7.80;93.80;;;;;;5077886;28;20373;-80
2022/04/19 01:10:16;;;;;;;6.65;5.85;;;7.80;94.00;;;;;;5077507;28;20456;-80
2022/04/19 01:15:26;;;;;;;8.57;6.18;;;7.80;94.20;;;;;;5080404;28;20521;-80
2022/04/19 01:17:52;;;;;;;7.55;6.10;;;7.70;94.30;;;;;;5078461;28;20044;-80
2022/04/19 01:20:18;;;;;;;7.50;6.05;;;7.60;94.60;;;;;;5077929;28;20062;-80
2022/04/19 01:22:46;;;;;;;6.15;5.55;;;7.60;94.80;;;;;;5095101;28;20369;-80
2022/04/19 01:25:12;;;;;;;6.85;6.15;;;7.60;95.10;;;;;;5061310;28;20051;-81
2022/04/19 01:27:38;;;;;;;6.45;5.80;;;7.60;95.40;;;;;;5094846;28;20143;-81
2022/04/19 01:30:05;;;;;;;9.38;7.05;;;7.60;95.40;;;;;;5094772;28;20079;-80
2022/04/19 01:32:31;;;;;;;7.57;6.65;;;7.50;95.20;;;;;;5061083;28;20094;-80
2022/04/19 01:35:16;;;;;;;12.27;7.28;;;7.50;94.90;;;;;;5078853;28;20078;-80
2022/04/19 01:37:49;;;;;;;7.40;6.03;;;7.50;94.70;;;;;;5065454;28;20047;-81
2022/04/19 01:40:18;;;;;;;8.27;6.72;;;7.50;94.60;;;;;;5065454;28;20043;-81
2022/04/19 01:42:44;;;;;;;8.55;6.50;;;7.40;94.60;;;;;;5066254;28;20122;-81
2022/04/19 01:45:10;;;;;;;7.10;6.28;;;7.40;94.60;;;;;;5098863;28;20048;-80
2022/04/19 01:47:39;;;;;;;7.53;6.57;;;7.40;95.00;;;;;;5081399;28;20044;-81
2022/04/19 01:50:09;;;;;;;9.32;6.80;;;7.40;95.00;;;;;;5065814;28;20051;-80
2022/04/19 01:52:35;;;;;;;7.55;6.28;;;7.30;95.00;;;;;;5065087;28;20047;-80
2022/04/19 01:55:01;;;;;;;9.02;6.55;;;7.40;95.00;;;;;;5081967;28;20126;-80
2022/04/19 01:57:27;;;;;;;7.45;6.38;;;7.30;95.00;;;;;;5098042;28;20077;-80
2022/04/19 01:59:53;;;;;;;7.20;6.38;;;7.30;95.00;;;;;;5098528;28;20043;-80
2022/04/19 02:02:18;;;;;;;10.25;6.90;;;7.20;95.00;;;;;;5064464;28;20043;-80
2022/04/19 02:04:44;;;;;;;7.45;6.53;;;7.30;94.90;;;;;;5116407;28;20055;-80
2022/04/19 02:07:10;;;;;;;7.85;6.60;;;7.20;94.90;;;;;;5084475;28;20058;-80
2022/04/19 02:09:36;;;;;;;8.00;6.57;;;7.10;94.90;;;;;;5117477;27;20039;-80
2022/04/19 02:12:01;;;;;;;8.98;6.60;;;7.10;95.00;;;;;;5133854;27;20131;-80
2022/04/19 02:14:28;;;;;;;7.30;6.50;;;7.10;95.10;;;;;;5064193;28;20046;-80
2022/04/19 02:16:55;;;;;;;10.13;7.10;;;7.10;95.20;;;;;;5081156;28;20543;-80
2022/04/19 02:19:21;;;;;;;7.60;6.50;;;7.00;95.10;;;;;;5097458;28;20403;-80
2022/04/19 02:21:46;;;;;;;8.73;7.20;;;7.00;95.10;;;;;;5064554;28;20053;-80
2022/04/19 02:24:12;;;;;;;8.75;7.10;;;7.00;95.10;;;;;;5083218;27;20042;-80
2022/04/19 02:26:38;;;;;;;8.38;7.03;;;7.00;95.30;;;;;;5136277;27;20051;-80
2022/04/19 02:29:03;;;;;;;9.00;7.05;;;7.00;95.30;;;;;;5136312;27;20038;-80
2022/04/19 02:31:29;;;;;;;9.98;6.47;;;7.10;95.40;;;;;;5101003;27;20043;-80
2022/04/19 02:33:58;;;;;;;8.20;7.13;;;7.00;95.50;;;;;;5101262;27;20074;-80
2022/04/19 02:36:24;;;;;;;8.27;6.90;;;7.00;95.80;;;;;;5126470;27;20055;-80
2022/04/19 02:38:50;;;;;;;9.32;6.93;;;7.00;95.90;;;;;;5115589;28;20406;-80
2022/04/19 02:41:16;;;;;;;7.13;6.38;;;7.00;96.00;;;;;;5080675;28;20056;-80
2022/04/19 02:43:41;;;;;;;8.68;6.68;;;6.90;95.90;;;;;;5080060;28;20377;-80
2022/04/19 02:46:07;;;;;;;7.55;6.72;;;6.90;96.00;;;;;;5096866;28;20048;-80
2022/04/19 02:48:33;;;;;;;7.85;6.90;;;6.80;96.10;;;;;;5096522;28;20047;-80
2022/04/19 02:51:00;;;;;;;9.88;7.20;;;6.90;96.10;;;;;;5080768;28;20059;-80
2022/04/19 02:53:26;;;;;;;9.27;6.80;;;6.90;96.10;;;;;;5080149;28;20047;-80
2022/04/19 02:55:52;;;;;;;8.70;6.60;;;6.70;96.10;;;;;;5097424;28;20054;-80
2022/04/19 02:58:17;;;;;;;7.85;6.63;;;6.70;96.10;;;;;;5047506;28;20048;-80
2022/04/19 03:00:43;;;;;;;9.50;6.38;;;6.70;96.20;;;;;;5097095;28;20043;-80
2022/04/19 03:03:12;;;;;;;7.00;6.30;;;6.60;96.40;;;;;;5096741;28;20047;-80
2022/04/19 03:05:40;;;;;;;7.18;6.47;;;6.60;96.60;;;;;;5080375;28;20051;-80
2022/04/19 03:08:06;;;;;;;9.35;6.65;;;6.60;96.70;;;;;;5096850;28;20181;-80
2022/04/19 03:10:32;;;;;;;8.35;6.97;;;6.60;96.60;;;;;;5096838;28;20082;-80
2022/04/19 03:12:57;;;;;;;10.55;6.53;;;6.50;96.50;;;;;;5096850;28;20144;-80
2022/04/19 03:15:23;;;;;;;8.90;7.18;;;6.40;96.70;;;;;;5079695;28;20043;-81
2022/04/19 03:17:49;;;;;;;8.48;6.50;;;6.40;96.80;;;;;;5080258;28;20079;-80
2022/04/19 03:20:15;;;;;;;8.63;6.53;;;6.40;97.10;;;;;;5080101;28;20048;-80
2022/04/19 03:28:11;;;;;;;9.10;7.60;;;6.30;97.60;;;;;;5099383;28;20050;-80
2022/04/19 03:30:38;;;;;;;9.05;8.00;;;6.30;97.80;;;;;;5096175;28;20124;-80
2022/04/19 03:33:03;;;;;;;9.80;8.20;;;6.30;97.90;;;;;;5096730;28;20108;-81
2022/04/19 03:35:29;;;;;;;11.07;8.65;;;6.30;98.00;;;;;;5096003;28;20043;-81
2022/04/19 03:37:55;;;;;;;12.10;9.43;;;6.30;98.00;;;;;;5062911;28;20055;-81
2022/04/19 03:40:20;;;;;;;13.15;9.77;;;6.30;98.20;;;;;;5096473;28;20134;-80
2022/04/19 03:42:46;;;;;;;11.40;9.20;;;6.30;98.20;;;;;;5079080;28;20127;-80
2022/04/19 03:45:12;;;;;;;13.20;9.73;;;6.40;98.20;;;;;;5079743;28;20128;-80
2022/04/19 03:47:37;;;;;;;10.63;8.60;;;6.40;98.20;;;;;;5095645;28;20132;-80
2022/04/19 03:50:07;;;;;;;11.70;9.20;;;6.50;98.10;;;;;;5079609;28;20102;-80
2022/04/19 03:52:34;;;;;;;10.25;8.73;;;6.50;98.30;;;;;;5062685;28;20048;-80
2022/04/19 03:55:00;;;;;;;11.68;9.57;;;6.50;98.30;;;;;;5096193;28;20051;-80
2022/04/19 03:57:26;;;;;;;11.32;9.05;;;6.60;98.30;;;;;;5079080;28;20050;-81
2022/04/19 03:59:51;;;;;;;11.50;9.07;;;6.50;98.40;;;;;;5078767;28;20051;-80
2022/04/19 04:02:17;;;;;;;11.85;9.52;;;6.60;98.40;;;;;;5079174;28;20056;-80
2022/04/19 04:04:43;;;;;;;11.35;8.82;;;6.60;98.30;;;;;;5095425;28;20044;-80
2022/04/19 04:07:09;;;;;;;10.77;9.15;;;6.60;98.20;;;;;;5062251;28;20072;-80
2022/04/19 04:09:37;;;;;;;13.35;9.60;;;6.60;98.10;;;;;;5074964;28;20139;-80
2022/04/19 04:12:04;;;;;;;10.75;8.95;;;6.70;98.00;;;;;;5076012;28;20131;-80
2022/04/19 04:14:30;;;;;;;11.25;9.15;;;6.70;98.00;;;;;;5058691;28;20059;-81
2022/04/19 04:16:55;;;;;;;15.48;9.98;;;6.70;98.10;;;;;;5092268;28;20040;-80
2022/04/19 04:19:21;;;;;;;11.25;9.00;;;6.70;98.10;;;;;;5075498;28;20046;-80
2022/04/19 04:21:47;;;;;;;11.98;9.32;;;6.70;98.10;;;;;;5058379;28;20558;-80
2022/04/19 04:24:12;;;;;;;11.38;9.13;;;6.70;98.20;;;;;;5058337;28;20036;-80
2022/04/19 04:26:38;;;;;;;11.38;8.73;;;6.80;98.20;;;;;;5074852;28;20048;-80
2022/04/19 04:29:04;;;;;;;14.30;8.95;;;6.70;98.30;;;;;;5092351;28;20050;-80
2022/04/19 04:31:29;;;;;;;11.55;9.15;;;6.70;98.30;;;;;;5092146;28;20197;-79
2022/04/19 04:33:55;;;;;;;11.73;8.25;;;6.70;98.40;;;;;;5091638;28;20041;-79
2022/04/19 04:36:20;;;;;;;13.55;9.02;;;6.60;98.50;;;;;;5092630;28;20058;-80
2022/04/19 04:38:46;;;;;;;12.10;8.80;;;6.60;98.50;;;;;;5091248;28;20044;-81
2022/04/19 04:41:12;;;;;;;11.07;8.52;;;6.50;98.50;;;;;;5075145;28;20380;-81
2022/04/19 04:43:39;;;;;;;10.43;8.25;;;6.50;98.60;;;;;;5091057;28;20116;-81
2022/04/19 04:51:36;;;;;;;16.27;8.48;;;6.50;98.90;;;;;;5091699;28;20052;-82
2022/04/19 04:54:02;;;;;;;13.23;8.98;;;6.50;98.90;;;;;;5093445;28;20051;-84
2022/04/19 04:56:28;;;;;;;11.52;9.13;;;6.50;99.00;;;;;;5095434;28;20047;-83
2022/04/19 04:58:53;;;;;;;10.95;8.73;;;6.50;99.00;;;;;;5078160;28;20090;-83
2022/04/19 05:01:19;;;;;;;10.38;8.77;;;6.50;99.10;;;;;;5078682;28;20480;-84
2022/04/19 05:03:44;;;;;;;10.45;8.90;;;6.50;99.20;;;;;;5094615;28;20043;-87
2022/04/19 05:06:10;;;;;;;11.88;8.38;;;6.50;99.30;;;;;;5074755;28;20048;-83
2022/04/19 05:08:36;;;;;;;11.68;8.82;;;6.50;99.40;;;;;;5053285;28;20097;-82
2022/04/19 05:11:01;;;;;;;10.50;8.65;;;6.60;99.50;;;;;;5072055;28;20139;-82
2022/04/19 05:13:27;;;;;;;12.15;8.57;;;6.50;99.50;;;;;;5054779;28;20056;-83
2022/04/19 05:15:53;;;;;;;10.93;8.60;;;6.50;99.50;;;;;;5054392;28;20096;-82
2022/04/19 05:18:18;;;;;;;10.10;8.20;;;6.50;99.70;;;;;;5038050;28;20154;-81
2022/04/19 05:20:44;;;;;;;13.05;8.70;;;6.50;99.70;;;;;;5070927;28;20097;-82
2022/04/19 05:23:10;;;;;;;11.85;8.50;;;6.50;99.70;;;;;;5037938;28;20047;-82
2022/04/19 05:25:35;;;;;;;10.38;8.65;;;6.50;99.80;;;;;;5054641;28;20470;-82
2022/04/19 05:28:01;;;;;;;14.02;9.07;;;6.60;99.90;;;;;;5054322;28;20094;-83
2022/04/19 05:30:27;;;;;;;15.68;9.30;;;6.60;99.90;;;;;;5071530;28;20487;-79
2022/04/19 05:32:53;;;;;;;12.70;8.63;;;6.50;99.90;;;;;;5037334;28;20048;-82
2022/04/19 05:35:19;;;;;;;17.40;9.43;;;6.60;99.90;;;;;;5055009;28;20063;-83
2022/04/19 05:37:45;;;;;;;11.98;9.07;;;6.70;99.90;;;;;;5071830;28;20473;-83
2022/04/19 05:40:11;;;;;;;9.90;8.75;;;6.60;99.90;;;;;;5054758;28;20061;-83
2022/04/19 05:42:37;;;;;;;13.23;8.88;;;6.70;99.90;;;;;;5021368;28;20400;-82
2022/04/19 05:45:05;;;;;;;11.73;9.23;;;6.70;99.90;;;;;;5037470;28;20087;-83
2022/04/19 05:47:31;;;;;;;12.00;8.95;;;6.80;99.90;;;;;;5071147;28;20097;-82
2022/04/19 05:49:57;;;;;;;12.38;9.73;;;6.80;99.90;;;;;;5070846;28;20091;-84
2022/04/19 05:52:22;;;;;;;12.73;9.68;;;6.80;99.90;;;;;;5037983;28;20085;-83
2022/04/19 05:54:49;;;;;;;14.70;9.15;;;6.90;99.90;;;;;;5037415;28;20480;-83
2022/04/19 05:57:14;;;;;;;12.98;9.10;;;7.00;99.90;;;;;;5038067;28;20067;-83
2022/04/19 05:59:40;;;;;;;11.57;9.23;;;7.10;99.90;;;;;;5070635;28;20473;-83
2022/04/19 06:04:53;;;;;;;12.30;9.35;;;7.30;99.90;;;;;;5070931;28;20066;-83
2022/04/19 06:07:22;;;;;;;13.75;9.18;;;7.40;99.90;;;;;;5054977;28;20131;-83
2022/04/19 06:09:47;;;;;;;16.73;9.27;;;7.40;99.70;;;;;;5035177;28;20097;-83
2022/04/19 06:12:13;;;;;;;11.60;8.60;;;7.50;99.70;;;;;;5074775;28;20048;-83
2022/04/19 06:14:39;;;;;;;14.82;8.88;;;7.50;99.60;;;;;;5092525;28;20056;-83
2022/04/19 06:17:05;;;;;;;12.73;8.63;;;7.70;99.70;;;;;;5073991;28;20392;-83
2022/04/19 06:19:31;;;;;;;12.75;8.40;;;7.60;99.70;;;;;;5058058;28;20127;-83
2022/04/19 06:21:59;;;;;;;13.57;9.77;;;7.70;99.70;;;;;;5058412;28;20048;-83
2022/04/19 06:24:25;;;;;;;13.18;8.82;;;7.80;99.60;;;;;;5061064;28;20051;-83
2022/04/19 06:26:51;;;;;;;14.57;8.88;;;7.70;99.50;;;;;;5077684;28;20044;-83
2022/04/19 06:29:17;;;;;;;12.77;8.95;;;7.80;99.50;;;;;;5078001;28;20507;-84
2022/04/19 06:31:43;;;;;;;12.75;8.50;;;7.90;99.50;;;;;;5061291;28;20267;-84
2022/04/19 06:34:09;;;;;;;13.52;8.57;;;7.90;99.30;;;;;;5061071;28;20140;-84
2022/04/19 06:36:35;;;;;;;14.32;8.65;;;8.00;99.30;;;;;;5094583;28;20400;-84
2022/04/19 06:39:01;;;;;;;11.75;8.85;;;8.00;99.40;;;;;;5077278;28;20040;-84
2022/04/19 06:41:26;;;;;;;12.55;8.60;;;8.10;99.50;;;;;;5061118;28;20052;-84
2022/04/19 06:43:53;;;;;;;11.57;8.77;;;8.20;99.50;;;;;;5060343;28;20074;-83
2022/04/19 06:46:19;;;;;;;11.10;8.52;;;8.20;99.50;;;;;;5094377;28;20048;-84
2022/04/19 06:48:45;;;;;;;10.65;8.70;;;8.30;99.60;;;;;;5060660;28;20046;-83
2022/04/19 06:51:10;;;;;;;12.93;9.30;;;8.30;99.20;;;;;;5093777;28;20043;-84
2022/04/19 06:53:36;;;;;;;13.95;9.02;;;8.30;99.40;;;;;;5077182;28;20047;-84
2022/04/19 06:56:04;;;;;;;13.00;8.73;;;8.40;99.40;;;;;;5060380;28;20098;-84
2022/04/19 06:58:30;;;;;;;10.00;8.50;;;8.50;99.40;;;;;;5061208;28;20055;-83
2022/04/19 07:00:56;;;;;;;12.05;8.50;;;8.50;99.40;;;;;;5093997;28;20044;-84
2022/04/19 07:03:24;;;;;;;12.48;8.77;;;8.60;99.30;;;;;;5077147;28;20051;-83
2022/04/19 07:05:50;;;;;;;12.43;8.85;;;8.70;99.20;;;;;;5094499;28;20157;-83
2022/04/19 07:08:16;;;;;;;11.02;8.52;;;8.70;99.20;;;;;;5110018;28;20044;-83
2022/04/19 07:10:42;;;;;;;11.18;8.18;;;8.80;99.10;;;;;;5097484;28;20080;-83
2022/04/19 07:13:08;;;;;;;12.45;8.20;;;8.90;98.90;;;;;;5109048;27;20082;-83
2022/04/19 07:15:34;;;;;;;10.75;8.15;;;8.90;98.80;;;;;;5117835;27;20092;-83
2022/04/19 07:17:59;;;;;;;10.55;8.07;;;9.00;99.00;;;;;;5100402;27;20051;-83
2022/04/19 07:28:37;;;;;;;12.85;8.63;;;9.30;99.20;;;;;;5069054;28;20155;-87
2022/04/19 07:31:05;;;;;;;10.98;7.97;;;9.40;99.20;;;;;;5114816;28;20039;-87
2022/04/19 07:33:31;;;;;;;13.18;7.85;;;9.60;99.10;;;;;;5063351;28;20392;-88
2022/04/19 07:35:59;;;;;;;10.70;7.78;;;9.70;98.80;;;;;;5085684;27;20055;-86
2022/04/19 07:38:25;;;;;;;9.68;7.57;;;9.80;98.60;;;;;;5083927;27;20046;-87
2022/04/19 07:40:57;;;;;;;11.27;7.45;;;10.00;98.30;;;;;;5086198;27;20045;-90
2022/04/19 07:43:23;;;;;;;11.07;7.00;;;10.10;97.70;;;;;;5084026;27;20039;-87
2022/04/19 07:45:49;;;;;;;8.23;6.15;;;10.30;97.00;;;;;;5083114;27;20039;-83
2022/04/19 07:48:15;;;;;;;7.90;5.82;;;10.40;96.60;;;;;;5066238;27;20050;-83
2022/04/19 07:50:42;;;;;;;7.50;6.13;;;10.50;95.60;;;;;;5083301;27;20384;-84
2022/04/19 07:53:09;;;;;;;10.65;6.60;;;10.70;95.20;;;;;;5083077;27;20044;-83
2022/04/19 07:55:34;;;;;;;9.15;5.82;;;10.80;95.00;;;;;;5083208;27;20039;-83
2022/04/19 07:58:12;;;;;;;8.32;6.30;;;10.90;94.20;;;;;;5099551;27;20091;-85
2022/04/19 08:00:37;;;;;;;9.15;6.20;;;11.10;94.30;;;;;;5084291;27;20093;-84
2022/04/19 08:03:10;;;;;;;8.70;5.90;;;11.20;94.40;;;;;;5116731;27;20070;-87
2022/04/19 08:06:08;;;;;;;11.70;7.18;;;11.30;94.30;;;;;;5101754;27;20047;-85
2022/04/19 08:08:54;;;;;;;8.27;6.32;;;11.50;93.50;;;;;;5080339;28;20059;-85
2022/04/19 08:11:33;;;;;;;6.80;5.35;;;11.60;93.50;;;;;;5081861;28;20060;-85
2022/04/19 08:14:11;;;;;;;6.30;5.00;;;11.80;92.90;;;;;;5080417;28;20046;-88
2022/04/19 08:16:50;;;;;;;5.88;4.72;;;11.90;91.00;;;;;;5080135;28;20051;-87
2022/04/19 08:19:34;;;;;;;8.07;5.35;;;12.00;90.80;;;;;;5081587;28;20507;-87
2022/04/19 08:22:05;;;;;;;9.60;6.43;;;12.10;90.50;;;;;;5097808;28;20089;-85
2022/04/19 08:25:00;;;;;;;;;;;;;;;;;;;;;
2022/04/19 08:27:42;;;;;;;;;;;;;;;;;;;;;
2022/04/19 08:30:23;;;;;;;;;;;;;;;;;;;;;
2022/04/19 08:36:21;;;;;;;9.05;4.50;;;12.30;82.90;;;;;;5042337;28;20067;-85
2022/04/19 08:38:55;;;;;;;8.10;4.65;;;12.30;83.90;;;;;;5054506;28;20061;-85
2022/04/19 08:41:51;;;;;;;8.70;5.25;;;12.30;83.60;;;;;;5054354;28;20045;-89
2022/04/19 08:44:36;;;;;;;;;;;;;;;;;;;;;
2022/04/19 08:48:03;;;;;;;;;;;;;;;;;;;;;
2022/04/19 08:50:40;;;;;;;4.90;3.60;;;12.40;78.60;;;;;;5068616;28;20056;-89
2022/04/19 08:58:47;;;;;;;5.70;4.13;;;12.30;78.70;;;;;;5084197;28;20396;-87
2022/04/19 09:01:19;;;;;;;9.73;4.38;;;12.40;78.90;;;;;;5064081;28;20601;-85
2022/04/19 09:03:51;;;;;;;6.13;4.20;;;12.40;78.90;;;;;;5062188;28;20040;-85
2022/04/19 09:06:35;;;;;;;;;;;;;;;;;;;;;
2022/04/19 09:09:12;;;;;;;8.70;4.10;;;12.40;78.90;;;;;;5097403;28;20094;-83
2022/04/19 09:11:38;;;;;;;6.30;4.13;;;12.50;76.00;;;;;;5095343;28;20043;-85
2022/04/19 09:14:30;;;;;;;4.15;3.67;;;12.60;75.90;;;;;;5062666;28;20088;-87
2022/04/19 09:17:16;;;;;;;;;;;;;;;;;;;;;
2022/04/19 09:19:44;;;;;;;3.95;3.05;;;12.70;74.10;;;;;;5081715;28;20437;-84
2022/04/19 09:22:18;;;;;;;5.18;2.88;;;12.70;74.30;;;;;;5062409;28;20047;-90
2022/04/19 09:24:51;;;;;;;4.32;3.00;;;12.70;72.00;;;;;;5062733;28;20130;-84
2022/04/19 09:27:32;;;;;;;4.25;2.70;;;12.70;70.40;;;;;;5080101;28;20044;-86
2022/04/19 09:30:30;;;;;;;4.90;3.05;;;12.80;68.90;;;;;;5079612;28;20395;-85
2022/04/19 09:33:16;;;;;;;;;;;;;;;;;;;;;
2022/04/19 09:35:58;;;;;;;4.80;2.50;;;12.80;67.10;;;;;;5081638;28;20048;-82
2022/04/19 09:38:36;;;;;;;3.25;2.20;;;12.80;66.40;;;;;;5080620;28;20091;-85
2022/04/19 09:41:09;;;;;;;3.83;2.10;;;12.90;64.70;;;;;;5079654;28;20101;-83
2022/04/19 09:43:40;;;;;;;3.72;2.15;;;12.90;64.40;;;;;;5062020;28;20122;-83
2022/04/19 09:46:26;;;;;;;4.85;2.20;;;13.00;64.40;;;;;;5078720;28;20058;-85
2022/04/19 09:48:55;;;;;;;4.07;1.55;;;13.00;63.20;;;;;;5063939;28;20046;-82
2022/04/19 09:51:20;;;;;;;4.65;1.52;;;13.10;63.30;;;;;;5061916;28;20056;-84
2022/04/19 09:53:47;;;;;;;3.80;1.30;;;13.20;62.00;;;;;;5060993;28;20387;-83
2022/04/19 09:56:16;;;;;;;1.13;1.00;;;13.20;60.50;;;;;;5096337;28;20090;-83
2022/04/19 09:58:47;;;;;;;4.45;1.10;;;13.20;60.00;;;;;;5082060;28;20052;-83
2022/04/19 10:09:52;;;;;;;3.10;1.75;;;13.50;58.90;;;;;;5102502;28;20056;-82
2022/04/19 10:12:24;;;;;;;6.03;1.40;;;13.50;58.70;;;;;;5081603;28;20092;-86
2022/04/19 10:14:55;;;;;;;2.35;1.40;;;13.60;58.80;;;;;;5065951;28;20058;-84
2022/04/19 10:17:24;;;;;;;1.67;1.50;;;13.70;58.60;;;;;;5082599;28;20522;-84
2022/04/19 10:19:50;;;;;;;2.00;1.52;;;13.70;58.40;;;;;;5081409;28;20054;-84
2022/04/19 10:22:28;;;;;;;3.65;1.50;;;13.70;58.90;;;;;;5080880;28;20056;-84
2022/04/19 10:24:57;;;;;;;2.72;1.50;;;13.70;58.30;;;;;;5082969;28;20050;-83
2022/04/19 10:27:36;;;;;;;4.07;1.52;;;13.80;59.80;;;;;;5065116;28;20050;-84
2022/04/19 10:30:27;;;;;;;3.55;1.58;;;13.90;58.60;;;;;;5078017;28;20090;-84
2022/04/19 10:32:55;;;;;;;3.35;1.70;;;14.00;58.70;;;;;;5095191;28;20052;-83
2022/04/19 10:35:24;;;;;;;2.42;1.58;;;14.00;58.20;;;;;;5080802;28;20048;-84
2022/04/19 10:38:30;;;;;;;3.85;1.65;;;14.10;58.40;;;;;;5077684;28;20044;-83
2022/04/19 10:40:56;;;;;;;2.42;1.73;;;14.20;58.10;;;;;;5078992;28;20135;-83
2022/04/19 10:43:31;;;;;;;3.17;1.85;;;14.20;58.50;;;;;;5075331;28;20111;-84
2022/04/19 10:46:19;;;;;;;3.25;1.92;;;14.20;58.70;;;;;;5058739;28;20077;-85
2022/04/19 10:49:25;;;;;;;4.32;1.88;;;14.30;57.70;;;;;;5096093;28;20091;-84
2022/04/19 10:51:59;;;;;;;2.15;1.60;;;14.40;57.40;;;;;;5097875;28;20134;-84
2022/04/19 10:55:02;;;;;;;3.10;1.65;;;14.40;58.00;;;;;;5082414;28;20081;-85
2022/04/19 11:00:31;;;;;;;2.50;2.17;;;14.60;58.90;;;;;;5085696;28;20062;-85
2022/04/19 11:03:06;;;;;;;;;;;14.70;58.40;;;;;;5081535;28;20050;-86
2022/04/19 11:05:43;;;;;;;2.90;1.83;;;14.70;57.60;;;;;;5097439;28;19919;-85
2022/04/19 11:08:29;;;;;;;2.10;1.88;;;14.80;58.40;;;;;;5079984;28;20491;-85
2022/04/19 11:10:55;;;;;;;3.85;2.30;;;14.80;57.80;;;;;;5113987;28;20055;-86
2022/04/19 11:13:27;;;;;;;2.75;2.00;;;14.80;59.10;;;;;;5114420;28;20450;-86
2022/04/19 11:15:57;;;;;;;2.10;1.88;;;14.80;59.40;;;;;;5114135;28;20472;-84
2022/04/19 11:18:26;;;;;;;2.75;2.50;;;14.90;59.90;;;;;;5097601;28;20059;-85
2022/04/19 11:20:58;;;;;;;4.32;2.70;;;14.90;60.40;;;;;;5080697;28;20058;-83
2022/04/19 11:23:25;;;;;;;8.52;2.78;;;14.90;59.40;;;;;;5097497;28;20484;-84
2022/04/19 11:25:52;;;;;;;3.15;2.42;;;15.00;58.90;;;;;;5113537;28;20073;-84
2022/04/19 11:28:18;;;;;;;3.95;2.50;;;15.00;58.60;;;;;;5080236;28;20059;-83
2022/04/19 11:31:05;;;;;;;4.82;2.80;;;15.10;59.10;;;;;;5096754;28;20050;-84
2022/04/19 11:33:33;;;;;;;7.55;3.05;;;15.10;58.80;;;;;;5069200;28;20051;-85
2022/04/19 11:36:09;;;;;;;5.47;2.60;;;15.20;58.50;;;;;;5088465;28;20035;-83
2022/04/19 11:38:50;;;;;;;4.22;2.20;;;15.30;59.10;;;;;;5079754;28;20047;-83
2022/04/19 11:46:55;;;;;;;2.83;2.10;;;15.40;57.10;;;;;;5084343;28;20048;-83
2022/04/19 11:49:34;;;;;;;4.22;2.53;;;15.40;57.50;;;;;;5096402;28;20043;-83
2022/04/19 11:52:11;;;;;;;7.32;2.80;;;15.40;57.00;;;;;;5092674;28;20479;-84
2022/04/19 11:54:37;;;;;;;3.10;2.60;;;15.40;57.50;;;;;;5043597;28;20052;-83
2022/04/19 11:57:07;;;;;;;4.63;2.60;;;15.40;57.20;;;;;;5059193;28;20055;-83
2022/04/19 11:59:34;;;;;;;4.00;2.20;;;15.40;56.50;;;;;;5076443;28;20066;-92
2022/04/19 12:02:13;;;;;;;2.75;2.30;;;15.40;56.70;;;;;;5044929;28;20189;-89
2022/04/19 12:04:49;;;;;;;4.07;2.47;;;15.50;57.40;;;;;;5062320;28;20047;-91
2022/04/19 12:07:19;;;;;;;2.53;2.30;;;15.50;56.90;;;;;;5045367;28;20098;-89
2022/04/19 12:09:47;;;;;;;4.60;2.63;;;15.50;57.10;;;;;;5043340;28;20051;-88
2022/04/19 12:12:19;;;;;;;2.63;2.40;;;15.50;56.80;;;;;;5061004;28;20055;-89
2022/04/19 12:15:17;;;;;;;3.60;2.40;;;15.60;55.90;;;;;;5063222;28;20161;-91
2022/04/19 12:17:44;;;;;;;5.45;2.65;;;15.60;56.20;;;;;;5064398;28;20481;-84
2022/04/19 12:20:22;;;;;;;;;;;;;;;;;;;;;
2022/04/19 12:22:51;;;;;;;4.63;2.72;;;15.70;56.30;;;;;;5076877;28;20044;-87
2022/04/19 12:25:38;;;;;;;;;;;;;;;;;;;;;
2022/04/19 12:28:12;;;;;;;3.78;2.90;;;15.80;56.80;;;;;;5064210;28;20052;-88
2022/04/19 12:30:55;;;;;;;7.32;2.45;;;15.80;57.90;;;;;;5059158;28;20040;-89
2022/04/19 12:33:21;;;;;;;3.63;2.20;;;15.90;57.20;;;;;;5061146;28;20084;-83
2022/04/19 12:35:47;;;;;;;10.18;2.35;;;15.90;56.20;;;;;;5058606;28;20091;-83
2022/04/19 12:38:13;;;;;;;5.57;2.40;;;15.90;55.70;;;;;;5058581;28;20044;-83
2022/04/19 12:40:48;;;;;;;5.13;2.78;;;15.90;55.60;;;;;;5042537;28;20130;-90
2022/04/19 12:43:19;;;;;;;4.47;2.40;;;15.90;55.40;;;;;;5042817;28;20110;-84
2022/04/19 12:45:45;;;;;;;4.65;1.90;;;15.80;56.00;;;;;;5060198;28;20388;-85
2022/04/19 12:48:21;;;;;;;4.95;2.00;;;15.90;55.40;;;;;;5076010;28;20051;-83
2022/04/19 12:51:02;;;;;;;4.07;1.83;;;16.00;55.20;;;;;;5074994;28;20416;-87
2022/04/19 12:53:28;;;;;;;4.28;1.48;;;15.90;55.60;;;;;;5077564;28;20115;-83
2022/04/19 12:55:53;;;;;;;2.78;1.75;;;16.00;55.00;;;;;;5058208;28;20082;-83
2022/04/19 12:58:19;;;;;;;3.60;1.80;;;16.00;54.80;;;;;;5091869;28;20052;-83
2022/04/19 13:00:45;;;;;;;2.20;2.00;;;16.00;55.20;;;;;;5108454;28;20044;-83
2022/04/19 13:03:10;;;;;;;2.13;1.92;;;16.00;55.40;;;;;;5058112;28;20040;-82
2022/04/19 13:13:48;;;;;;;3.30;2.20;;;16.10;54.80;;;;;;5077207;28;20048;-83
2022/04/19 13:16:14;;;;;;;1.63;1.50;;;16.10;55.40;;;;;;5091797;28;20134;-82
2022/04/19 13:18:40;;;;;;;4.07;1.70;;;16.20;55.30;;;;;;5074765;28;20044;-82
2022/04/19 13:21:07;;;;;;;1.90;1.58;;;16.20;55.40;;;;;;5074366;28;20075;-82
2022/04/19 13:23:32;;;;;;;3.05;2.28;;;16.20;55.40;;;;;;5074878;28;20063;-82
2022/04/19 13:25:58;;;;;;;3.58;2.10;;;16.20;55.50;;;;;;5091438;28;20044;-82
2022/04/19 13:28:26;;;;;;;3.22;2.10;;;16.20;55.90;;;;;;5074946;28;20514;-82
2022/04/19 13:30:54;;;;;;;4.13;2.15;;;16.30;55.30;;;;;;5075481;28;20055;-83
2022/04/19 13:33:20;;;;;;;3.35;1.90;;;16.30;55.20;;;;;;5079062;28;20043;-83
2022/04/19 13:35:46;;;;;;;4.57;2.28;;;16.30;55.20;;;;;;5095736;28;20044;-83
2022/04/19 13:38:23;;;;;;;4.35;2.33;;;16.30;54.90;;;;;;5078873;28;20052;-83
2022/04/19 13:40:49;;;;;;;5.05;2.17;;;16.40;54.40;;;;;;5095564;28;20531;-83
2022/04/19 13:43:15;;;;;;;3.40;2.20;;;16.40;54.90;;;;;;5095564;28;20127;-83
2022/04/19 13:45:40;;;;;;;2.38;1.80;;;16.40;54.50;;;;;;5095915;28;20079;-83
2022/04/19 13:48:06;;;;;;;1.92;1.60;;;16.40;55.10;;;;;;5078427;28;20062;-88
2022/04/19 13:50:32;;;;;;;3.00;1.80;;;16.40;54.40;;;;;;5079293;28;20044;-90
2022/04/19 13:52:59;;;;;;;3.50;2.03;;;16.40;54.50;;;;;;5079565;28;20488;-90
2022/04/19 13:55:25;;;;;;;2.58;1.90;;;16.40;54.70;;;;;;5079465;28;20051;-91
2022/04/19 13:57:51;;;;;;;2.25;2.03;;;16.40;54.10;;;;;;5045943;28;20048;-91
2022/04/19 14:00:17;;;;;;;2.58;1.90;;;16.50;54.70;;;;;;5062986;28;20090;-90
2022/04/19 14:02:43;;;;;;;3.80;2.40;;;16.50;54.60;;;;;;5096230;28;20094;-84
2022/04/19 14:05:09;;;;;;;3.08;2.03;;;16.50;55.10;;;;;;5061671;28;20048;-85
2022/04/19 14:07:35;;;;;;;4.60;2.40;;;16.50;55.20;;;;;;5095187;28;20492;-87
2022/04/19 14:10:01;;;;;;;2.60;2.13;;;16.50;54.90;;;;;;5061569;28;20065;-90
2022/04/19 14:12:27;;;;;;;3.40;2.50;;;16.50;54.90;;;;;;5095677;28;20052;-89